createdAt,value
2022-09-01T00:00:31.134Z,97852.31
2022-09-01T00:01:44.002Z,97848.94
2022-09-01T00:02:51.756Z,97847.13
2022-09-01T00:04:04.925Z,97851.55
2022-09-01T00:05:13.398Z,97851.52
2022-09-01T00:06:23.916Z,97849.20
2022-09-01T00:07:31.723Z,97851.66
2022-09-01T00:08:38.312Z,97850.85
2022-09-01T00:09:46.203Z,97855.94
2022-09-01T00:10:54.954Z,97855.20
2022-09-01T00:12:02.311Z,97856.21
2022-09-01T00:13:09.353Z,97858.70
2022-09-01T00:14:30.405Z,97855.84
2022-09-01T00:15:38.416Z,97856.73
2022-09-01T00:16:45.661Z,97855.29
2022-09-01T00:17:57.279Z,97859.14
2022-09-01T00:19:03.393Z,97859.23
2022-09-01T00:20:10.663Z,97854.84
2022-09-01T00:21:18.382Z,97859.48
2022-09-01T00:22:25.513Z,97860.48
2022-09-01T00:23:32.682Z,97857.47
2022-09-01T00:24:40.152Z,97855.11
2022-09-01T00:25:47.272Z,97854.19
2022-09-01T00:26:57.116Z,97852.64
2022-09-01T00:28:06.573Z,97855.77
2022-09-01T00:29:14.693Z,97855.55
2022-09-01T00:30:22.877Z,97849.39
2022-09-01T00:31:30.028Z,97850.52
2022-09-01T00:32:37.652Z,97854.58
2022-09-01T00:33:44.227Z,97855.48
2022-09-01T00:34:50.133Z,97854.43
2022-09-01T00:35:55.943Z,97854.33
2022-09-01T00:37:05.112Z,97853.85
2022-09-01T00:38:12.873Z,97856.46
2022-09-01T00:39:19.092Z,97854.46
2022-09-01T00:40:28.679Z,97860.27
2022-09-01T00:41:38.888Z,97860.44
2022-09-01T00:42:46.111Z,97859.50
2022-09-01T00:43:56.670Z,97858.89
2022-09-01T00:45:03.840Z,97858.85
2022-09-01T00:46:14.046Z,97861.06
2022-09-01T00:47:27.503Z,97861.05
2022-09-01T00:48:36.873Z,97857.70
2022-09-01T00:49:48.165Z,97857.02
2022-09-01T00:50:55.542Z,97859.50
2022-09-01T00:52:17.832Z,97860.17
2022-09-01T00:53:25.661Z,97861.12
2022-09-01T00:54:35.432Z,97858.54
2022-09-01T00:55:41.592Z,97862.73
2022-09-01T00:56:49.730Z,97860.86
2022-09-01T00:58:05.913Z,97862.20
2022-09-01T00:59:27.681Z,97861.94
2022-09-01T01:00:45.411Z,97864.88
2022-09-01T01:01:53.163Z,97866.77
2022-09-01T01:02:59.656Z,97864.29
2022-09-01T01:04:06.612Z,97860.17
2022-09-01T01:05:15.654Z,97861.00
2022-09-01T01:06:30.703Z,97860.46
2022-09-01T01:07:42.620Z,97859.64
2022-09-01T01:09:00.323Z,97861.33
2022-09-01T01:10:08.015Z,97861.76
2022-09-01T01:11:19.581Z,97863.70
2022-09-01T01:12:29.032Z,97862.74
2022-09-01T01:13:52.122Z,97866.16
2022-09-01T01:15:00.053Z,97862.34
2022-09-01T01:16:09.200Z,97860.90
2022-09-01T01:17:19.656Z,97866.39
2022-09-01T01:18:27.422Z,97868.88
2022-09-01T01:20:12.471Z,97868.48
2022-09-01T01:21:57.742Z,97873.83
2022-09-01T01:23:14.153Z,97872.39
2022-09-01T01:24:28.402Z,97875.05
2022-09-01T01:25:37.823Z,97874.71
2022-09-01T01:26:48.122Z,97877.20
2022-09-01T01:27:54.071Z,97878.02
2022-09-01T01:29:04.552Z,97877.27
2022-09-01T01:30:15.191Z,97877.53
2022-09-01T01:31:25.410Z,97881.01
2022-09-01T01:32:34.592Z,97879.75
2022-09-01T01:33:51.912Z,97881.59
2022-09-01T01:34:59.433Z,97885.48
2022-09-01T01:36:08.560Z,97882.54
2022-09-01T01:37:16.422Z,97884.13
2022-09-01T01:38:23.831Z,97885.56
2022-09-01T01:39:31.354Z,97885.05
2022-09-01T01:40:39.178Z,97880.75
2022-09-01T01:41:49.541Z,97890.89
2022-09-01T01:42:58.472Z,97887.70
2022-09-01T01:44:06.312Z,97886.81
2022-09-01T01:45:20.035Z,97885.13
2022-09-01T01:46:29.943Z,97888.76
2022-09-01T01:47:36.993Z,97891.48
2022-09-01T01:48:45.362Z,97890.73
2022-09-01T01:49:53.610Z,97888.05
2022-09-01T01:51:01.351Z,97888.58
2022-09-01T01:52:09.431Z,97893.60
2022-09-01T01:53:18.127Z,97893.65
2022-09-01T01:54:28.002Z,97897.48
2022-09-01T01:55:34.991Z,97898.58
2022-09-01T01:56:42.791Z,97897.88
2022-09-01T01:57:52.760Z,97900.90
2022-09-01T01:59:02.632Z,97900.86
2022-09-01T02:00:12.033Z,97903.56
2022-09-01T02:01:22.699Z,97904.91
2022-09-01T02:02:30.379Z,97905.98
2022-09-01T02:03:39.222Z,97906.29
2022-09-01T02:04:48.131Z,97906.21
2022-09-01T02:05:55.077Z,97906.23
2022-09-01T02:07:00.903Z,97907.10
2022-09-01T02:08:09.512Z,97905.50
2022-09-01T02:09:20.080Z,97906.46
2022-09-01T02:10:28.073Z,97899.70
2022-09-01T02:11:36.292Z,97904.94
2022-09-01T02:12:47.113Z,97905.44
2022-09-01T02:13:58.260Z,97903.27
2022-09-01T02:15:04.823Z,97903.20
2022-09-01T02:16:14.782Z,97901.81
2022-09-01T02:17:21.683Z,97901.59
2022-09-01T02:18:37.993Z,97900.73
2022-09-01T02:19:45.022Z,97905.25
2022-09-01T02:20:52.242Z,97904.88
2022-09-01T02:22:00.542Z,97905.98
2022-09-01T02:23:13.389Z,97908.55
2022-09-01T02:24:21.671Z,97911.58
2022-09-01T02:25:30.532Z,97910.30
2022-09-01T02:26:43.923Z,97909.04
2022-09-01T02:27:55.505Z,97910.05
2022-09-01T02:29:05.825Z,97908.38
2022-09-01T02:30:13.278Z,97911.76
2022-09-01T02:31:22.032Z,97912.77
2022-09-01T02:32:28.054Z,97911.18
2022-09-01T02:33:35.454Z,97910.02
2022-09-01T02:34:44.387Z,97913.09
2022-09-01T02:35:52.922Z,97911.13
2022-09-01T02:36:59.414Z,97913.41
2022-09-01T02:38:06.314Z,97913.21
2022-09-01T02:39:13.351Z,97914.63
2022-09-01T02:40:19.609Z,97911.98
2022-09-01T02:41:31.152Z,97915.25
2022-09-01T02:42:42.798Z,97917.86
2022-09-01T02:43:49.192Z,97922.38
2022-09-01T02:44:56.812Z,97923.21
2022-09-01T02:46:03.524Z,97922.52
2022-09-01T02:47:12.232Z,97924.67
2022-09-01T02:48:19.025Z,97926.03
2022-09-01T02:49:30.703Z,97927.71
2022-09-01T02:50:38.014Z,97929.71
2022-09-01T02:51:46.460Z,97929.42
2022-09-01T02:52:55.323Z,97929.21
2022-09-01T02:54:02.111Z,97930.52
2022-09-01T02:55:12.343Z,97931.86
2022-09-01T02:56:25.629Z,97930.09
2022-09-01T02:57:35.333Z,97931.02
2022-09-01T02:58:50.692Z,97933.64
2022-09-01T02:59:59.314Z,97933.48
2022-09-01T03:01:07.171Z,97934.41
2022-09-01T03:02:14.968Z,97940.80
2022-09-01T03:03:22.492Z,97943.64
2022-09-01T03:04:36.431Z,97943.77
2022-09-01T03:05:44.539Z,97945.02
2022-09-01T03:06:53.454Z,97945.80
2022-09-01T03:08:02.644Z,97947.61
2022-09-01T03:09:11.269Z,97948.16
2022-09-01T03:10:18.233Z,97947.66
2022-09-01T03:11:25.672Z,97947.46
2022-09-01T03:12:33.801Z,97944.30
2022-09-01T03:13:41.022Z,97942.52
2022-09-01T03:14:47.872Z,97941.85
2022-09-01T03:15:54.821Z,97941.82
2022-09-01T03:17:01.714Z,97939.94
2022-09-01T03:18:10.779Z,97939.75
2022-09-01T03:19:17.272Z,97940.07
2022-09-01T03:20:23.512Z,97942.05
2022-09-01T03:21:33.034Z,97940.80
2022-09-01T03:22:39.337Z,97943.65
2022-09-01T03:23:51.542Z,97944.90
2022-09-01T03:24:58.792Z,97942.60
2022-09-01T03:26:06.901Z,97945.70
2022-09-01T03:27:14.061Z,97942.79
2022-09-01T03:28:20.094Z,97942.25
2022-09-01T03:29:27.512Z,97941.38
2022-09-01T03:30:36.071Z,97940.34
2022-09-01T03:31:43.972Z,97941.39
2022-09-01T03:32:50.911Z,97943.39
2022-09-01T03:33:58.081Z,97950.85
2022-09-01T03:35:09.674Z,97949.12
2022-09-01T03:36:19.802Z,97949.85
2022-09-01T03:37:29.499Z,97951.67
2022-09-01T03:38:36.661Z,97952.64
2022-09-01T03:39:44.393Z,97952.52
2022-09-01T03:40:50.894Z,97953.11
2022-09-01T03:41:59.389Z,97954.35
2022-09-01T03:43:07.832Z,97958.03
2022-09-01T03:44:17.123Z,97955.03
2022-09-01T03:45:26.962Z,97955.70
2022-09-01T03:46:36.785Z,97956.40
2022-09-01T03:47:46.090Z,97955.89
2022-09-01T03:48:59.192Z,97959.13
2022-09-01T03:50:06.792Z,97962.00
2022-09-01T03:51:15.413Z,97966.24
2022-09-01T03:52:22.239Z,97965.40
2022-09-01T03:53:29.191Z,97959.55
2022-09-01T03:54:36.312Z,97961.17
2022-09-01T03:55:42.863Z,97959.43
2022-09-01T03:56:50.104Z,97961.86
2022-09-01T03:58:01.833Z,97965.00
2022-09-01T03:59:17.611Z,97964.36
2022-09-01T04:00:31.031Z,97964.30
2022-09-01T04:01:42.031Z,97968.89
2022-09-01T04:02:56.084Z,97975.02
2022-09-01T04:04:07.932Z,97975.53
2022-09-01T04:05:15.980Z,97974.15
2022-09-01T04:06:25.180Z,97971.83
2022-09-01T04:07:32.379Z,97973.67
2022-09-01T04:08:40.870Z,97974.84
2022-09-01T04:09:53.551Z,97976.02
2022-09-01T04:11:01.332Z,97980.70
2022-09-01T04:12:16.491Z,97984.54
2022-09-01T04:13:32.915Z,97985.20
2022-09-01T04:14:42.102Z,97989.82
2022-09-01T04:15:49.031Z,97984.66
2022-09-01T04:17:15.202Z,97986.23
2022-09-01T04:18:22.042Z,97984.95
2022-09-01T04:19:29.195Z,97986.50
2022-09-01T04:20:49.283Z,97987.64
2022-09-01T04:22:02.501Z,97986.09
2022-09-01T04:23:21.772Z,97990.10
2022-09-01T04:24:29.701Z,97989.86
2022-09-01T04:25:40.053Z,97990.75
2022-09-01T04:26:49.893Z,97993.42
2022-09-01T04:27:57.722Z,97994.58
2022-09-01T04:29:05.040Z,98001.30
2022-09-01T04:30:14.172Z,98002.33
2022-09-01T04:31:27.628Z,97999.50
2022-09-01T04:32:35.871Z,97997.55
2022-09-01T04:33:47.683Z,97997.04
2022-09-01T04:34:54.070Z,97995.61
2022-09-01T04:36:01.464Z,97990.45
2022-09-01T04:37:19.036Z,97986.59
2022-09-01T04:38:30.596Z,97986.59
2022-09-01T04:39:39.853Z,97982.05
2022-09-01T04:40:46.051Z,97983.06
2022-09-01T04:41:54.893Z,97986.20
2022-09-01T04:43:01.318Z,97988.80
2022-09-01T04:44:08.843Z,97991.19
2022-09-01T04:45:23.303Z,97995.92
2022-09-01T04:46:32.173Z,97995.83
2022-09-01T04:47:42.589Z,97996.86
2022-09-01T04:48:54.881Z,97995.27
2022-09-01T04:50:04.873Z,97997.71
2022-09-01T04:51:13.155Z,97997.34
2022-09-01T04:52:32.853Z,97994.36
2022-09-01T04:53:41.903Z,97992.77
2022-09-01T04:54:49.616Z,97994.67
2022-09-01T04:55:55.962Z,97997.13
2022-09-01T04:57:06.373Z,97999.52
2022-09-01T04:58:19.123Z,97999.59
2022-09-01T04:59:27.804Z,98004.55
2022-09-01T05:00:38.296Z,98004.94
2022-09-01T05:01:47.534Z,98004.64
2022-09-01T05:03:06.262Z,98007.33
2022-09-01T05:04:35.672Z,98006.89
2022-09-01T05:05:46.437Z,98006.22
2022-09-01T05:06:58.802Z,98005.71
2022-09-01T05:08:23.043Z,98006.52
2022-09-01T05:09:38.132Z,98008.38
2022-09-01T05:11:08.745Z,98011.48
2022-09-01T05:12:24.572Z,98011.05
2022-09-01T05:13:33.442Z,98012.27
2022-09-01T05:14:44.695Z,98013.67
2022-09-01T05:16:00.552Z,98010.66
2022-09-01T05:17:11.556Z,98013.90
2022-09-01T05:18:24.561Z,98014.45
2022-09-01T05:19:35.556Z,98012.39
2022-09-01T05:20:42.862Z,98011.13
2022-09-01T05:21:49.253Z,98010.26
2022-09-01T05:22:57.632Z,98011.17
2022-09-01T05:24:05.622Z,98011.60
2022-09-01T05:25:14.452Z,98008.83
2022-09-01T05:26:31.894Z,98009.75
2022-09-01T05:27:50.422Z,98012.66
2022-09-01T05:29:00.681Z,98011.32
2022-09-01T05:30:10.932Z,98009.97
2022-09-01T05:31:20.456Z,98009.58
2022-09-01T05:32:29.182Z,98010.57
2022-09-01T05:33:37.353Z,98006.16
2022-09-01T05:34:46.296Z,98005.64
2022-09-01T05:36:01.754Z,98006.05
2022-09-01T05:37:09.326Z,98005.11
2022-09-01T05:38:19.474Z,98005.37
2022-09-01T05:39:27.731Z,98005.59
2022-09-01T05:40:41.953Z,98005.17
2022-09-01T05:41:50.801Z,98006.08
2022-09-01T05:42:58.683Z,98005.70
2022-09-01T05:44:09.144Z,98003.52
2022-09-01T05:45:21.872Z,98002.61
2022-09-01T05:46:29.636Z,98007.42
2022-09-01T05:47:40.270Z,98007.14
2022-09-01T05:48:50.437Z,98006.13
2022-09-01T05:49:56.132Z,98002.73
2022-09-01T05:51:02.292Z,98002.12
2022-09-01T05:52:11.717Z,98003.41
2022-09-01T05:53:18.375Z,98007.91
2022-09-01T05:54:31.556Z,98007.81
2022-09-01T05:55:41.564Z,98009.52
2022-09-01T05:56:48.844Z,98011.62
2022-09-01T05:58:06.182Z,98010.71
2022-09-01T05:59:29.248Z,98011.02
2022-09-01T06:01:00.371Z,98014.80
2022-09-01T06:02:10.124Z,98012.44
2022-09-01T06:03:18.623Z,98013.77
2022-09-01T06:04:26.756Z,98017.27
2022-09-01T06:05:40.462Z,98014.52
2022-09-01T06:07:07.880Z,98018.11
2022-09-01T06:08:20.819Z,98016.64
2022-09-01T06:09:27.877Z,98017.88
2022-09-01T06:10:36.314Z,98016.15
2022-09-01T06:11:43.669Z,98014.20
2022-09-01T06:12:55.202Z,98015.34
2022-09-01T06:14:02.414Z,98012.71
2022-09-01T06:15:17.681Z,98011.62
2022-09-01T06:16:32.629Z,98012.29
2022-09-01T06:17:42.503Z,98010.92
2022-09-01T06:18:50.973Z,98010.70
2022-09-01T06:20:01.774Z,98007.99
2022-09-01T06:21:09.652Z,98009.23
2022-09-01T06:22:21.133Z,98011.42
2022-09-01T06:23:29.052Z,98011.85
2022-09-01T06:24:44.092Z,98012.83
2022-09-01T06:25:52.782Z,98015.46
2022-09-01T06:27:00.955Z,98010.98
2022-09-01T06:28:09.528Z,98011.85
2022-09-01T06:29:17.242Z,98010.37
2022-09-01T06:30:27.885Z,98014.21
2022-09-01T06:31:43.150Z,98018.12
2022-09-01T06:32:50.492Z,98019.80
2022-09-01T06:33:58.274Z,98018.89
2022-09-01T06:35:08.072Z,98017.20
2022-09-01T06:36:18.262Z,98014.92
2022-09-01T06:37:24.501Z,98015.67
2022-09-01T06:38:36.062Z,98014.14
2022-09-01T06:39:44.972Z,98010.62
2022-09-01T06:40:54.885Z,98014.73
2022-09-01T06:42:01.551Z,98012.28
2022-09-01T06:43:19.538Z,98012.60
2022-09-01T06:44:28.322Z,98018.37
2022-09-01T06:45:44.225Z,98020.77
2022-09-01T06:46:56.476Z,98021.04
2022-09-01T06:48:02.521Z,98020.56
2022-09-01T06:49:12.244Z,98018.17
2022-09-01T06:51:53.562Z,98021.17
2022-09-01T06:54:44.414Z,98024.73
2022-09-01T06:55:51.052Z,98023.18
2022-09-01T06:56:58.428Z,98024.52
2022-09-01T06:58:07.833Z,98023.79
2022-09-01T06:59:16.932Z,98021.16
2022-09-01T07:00:27.681Z,98020.64
2022-09-01T07:01:34.526Z,98018.45
2022-09-01T07:02:42.542Z,98017.60
2022-09-01T07:04:13.578Z,98013.61
2022-09-01T07:12:27.878Z,98010.17
2022-09-01T07:16:53.603Z,98009.73
2022-09-01T07:18:22.307Z,98010.74
2022-09-01T07:19:48.249Z,98009.09
2022-09-01T07:21:06.967Z,98011.23
2022-09-01T07:23:02.646Z,98013.63
2022-09-01T07:24:10.620Z,98015.22
2022-09-01T07:27:09.252Z,98013.46
2022-09-01T07:28:19.691Z,98014.04
2022-09-01T07:29:36.568Z,98012.96
2022-09-01T07:30:51.929Z,98010.25
2022-09-01T07:33:44.420Z,98003.67
2022-09-01T07:34:52.882Z,98006.17
2022-09-01T07:42:55.516Z,98016.02
2022-09-01T07:44:23.622Z,98000.72
2022-09-01T07:45:31.433Z,98002.05
2022-09-01T07:46:42.895Z,98001.25
2022-09-01T07:47:57.742Z,98004.91
2022-09-01T07:51:34.352Z,98003.98
2022-09-01T07:52:00.251Z,98002.21
2022-09-01T07:53:07.253Z,98000.55
2022-09-01T07:54:15.782Z,97997.86
2022-09-01T07:55:22.504Z,97993.02
2022-09-01T07:56:37.509Z,97990.77
2022-09-01T07:57:49.073Z,97984.37
2022-09-01T07:58:56.843Z,97981.23
2022-09-01T08:00:05.962Z,97980.94
2022-09-01T08:01:23.945Z,97980.52
2022-09-01T08:02:31.960Z,97974.83
2022-09-01T08:03:40.582Z,97974.56
2022-09-01T08:04:49.188Z,97973.66
2022-09-01T08:06:01.212Z,97976.88
2022-09-01T08:07:15.447Z,97975.88
2022-09-01T08:08:29.314Z,97977.73
2022-09-01T08:09:44.033Z,97980.13
2022-09-01T08:11:04.373Z,97980.87
2022-09-01T08:12:15.552Z,97981.65
2022-09-01T08:13:29.192Z,97982.00
2022-09-01T08:14:37.342Z,97980.67
2022-09-01T08:17:17.198Z,97980.11
2022-09-01T08:18:49.546Z,97979.20
2022-09-01T08:20:18.294Z,97978.46
2022-09-01T08:21:32.713Z,97978.61
2022-09-01T08:22:48.812Z,97980.78
2022-09-01T08:24:15.131Z,97976.29
2022-09-01T08:25:24.902Z,97976.88
2022-09-01T08:26:37.522Z,97976.63
2022-09-01T08:27:44.422Z,97978.77
2022-09-01T08:28:55.717Z,97979.98
2022-09-01T08:30:16.157Z,97979.45
2022-09-01T08:31:22.499Z,97973.21
2022-09-01T08:32:29.482Z,97974.10
2022-09-01T08:33:36.882Z,97971.15
2022-09-01T08:34:44.904Z,97972.09
2022-09-01T08:35:51.602Z,97972.56
2022-09-01T08:36:58.013Z,97969.90
2022-09-01T08:38:03.692Z,97964.83
2022-09-01T08:39:09.983Z,97966.42
2022-09-01T08:40:19.975Z,97963.63
2022-09-01T08:42:08.833Z,97965.34
2022-09-01T08:43:55.402Z,97968.67
2022-09-01T08:45:25.502Z,97969.14
2022-09-01T08:46:36.389Z,97966.95
2022-09-01T08:48:05.910Z,97966.70
2022-09-01T08:49:25.673Z,97967.38
2022-09-01T08:51:21.923Z,97963.41
2022-09-01T08:53:09.352Z,97960.92
2022-09-01T08:54:45.563Z,97957.29
2022-09-01T08:55:58.664Z,97954.59
2022-09-01T08:57:13.193Z,97948.95
2022-09-01T08:58:42.457Z,97949.65
2022-09-01T09:00:26.482Z,97951.00
2022-09-01T09:02:07.760Z,97947.24
2022-09-01T09:03:48.189Z,97947.02
2022-09-01T09:05:25.345Z,97951.83
2022-09-01T09:06:49.523Z,97955.13
2022-09-01T09:08:25.063Z,97959.34
2022-09-01T09:09:53.074Z,97961.65
2022-09-01T09:11:02.011Z,97965.61
2022-09-01T09:12:11.518Z,97965.55
2022-09-01T09:13:47.832Z,97962.06
2022-09-01T09:15:12.544Z,97956.96
2022-09-01T09:16:24.520Z,97953.89
2022-09-01T09:17:35.776Z,97953.95
2022-09-01T09:19:04.554Z,97954.83
2022-09-01T09:20:12.704Z,97954.52
2022-09-01T09:21:22.663Z,97954.38
2022-09-01T09:22:29.141Z,97951.61
2022-09-01T09:23:40.534Z,97950.56
2022-09-01T09:24:51.104Z,97953.54
2022-09-01T09:25:58.982Z,97954.05
2022-09-01T09:27:09.612Z,97956.49
2022-09-01T09:28:19.522Z,97952.67
2022-09-01T09:29:29.916Z,97954.15
2022-09-01T09:30:38.569Z,97953.80
2022-09-01T09:31:50.281Z,97952.95
2022-09-01T09:33:30.836Z,97951.25
2022-09-01T09:34:33.507Z,97952.86
2022-09-01T09:35:41.296Z,97950.20
2022-09-01T09:36:54.519Z,97949.29
2022-09-01T09:38:21.518Z,97951.63
2022-09-01T09:39:27.946Z,97949.84
2022-09-01T09:41:06.691Z,97947.89
2022-09-01T09:42:11.143Z,97945.44
2022-09-01T09:43:22.310Z,97942.42
2022-09-01T09:44:36.399Z,97943.26
2022-09-01T09:45:42.702Z,97942.03
2022-09-01T09:46:53.076Z,97939.63
2022-09-01T09:48:06.662Z,97938.70
2022-09-01T09:49:42.256Z,97941.13
2022-09-01T09:50:52.922Z,97937.10
2022-09-01T09:52:11.757Z,97936.08
2022-09-01T09:53:33.984Z,97933.33
2022-09-01T09:54:44.742Z,97924.32
2022-09-01T09:56:04.717Z,97921.54
2022-09-01T09:57:18.733Z,97914.55
2022-09-01T09:58:29.403Z,97915.14
2022-09-01T10:00:01.003Z,97914.36
2022-09-01T10:01:26.397Z,97913.31
2022-09-01T10:02:39.924Z,97912.58
2022-09-01T10:03:54.866Z,97910.82
2022-09-01T10:05:03.272Z,97909.04
2022-09-01T10:06:14.072Z,97909.06
2022-09-01T10:07:47.703Z,97909.02
2022-09-01T10:08:55.584Z,97906.59
2022-09-01T10:10:05.042Z,97904.48
2022-09-01T10:11:12.872Z,97906.43
2022-09-01T10:12:20.533Z,97904.94
2022-09-01T10:13:27.855Z,97907.06
2022-09-01T10:14:53.142Z,97909.41
2022-09-01T10:16:07.938Z,97913.11
2022-09-01T10:17:43.590Z,97916.83
2022-09-01T10:18:51.338Z,97921.90
2022-09-01T10:20:07.432Z,97923.90
2022-09-01T10:21:36.865Z,97926.84
2022-09-01T10:22:44.810Z,97925.27
2022-09-01T10:23:52.543Z,97923.85
2022-09-01T10:25:00.753Z,97920.55
2022-09-01T10:26:18.867Z,97919.42
2022-09-01T10:27:27.202Z,97920.41
2022-09-01T10:28:33.482Z,97919.04
2022-09-01T10:29:47.745Z,97918.86
2022-09-01T10:30:57.735Z,97921.34
2022-09-01T10:32:31.883Z,97924.91
2022-09-01T10:33:36.896Z,97927.61
2022-09-01T10:34:44.862Z,97928.81
2022-09-01T10:35:54.153Z,97927.19
2022-09-01T10:37:00.302Z,97930.02
2022-09-01T10:38:18.974Z,97927.80
2022-09-01T10:39:30.550Z,97927.84
2022-09-01T10:40:49.188Z,97927.00
2022-09-01T10:42:08.721Z,97927.46
2022-09-01T10:43:37.473Z,97926.86
2022-09-01T10:45:02.882Z,97921.98
2022-09-01T10:46:26.061Z,97921.39
2022-09-01T10:47:41.182Z,97920.23
2022-09-01T10:48:56.061Z,97919.24
2022-09-01T10:50:40.393Z,97914.13
2022-09-01T10:51:51.887Z,97909.01
2022-09-01T10:53:05.512Z,97908.05
2022-09-01T10:54:12.731Z,97908.48
2022-09-01T10:55:27.682Z,97904.58
2022-09-01T10:56:51.799Z,97907.54
2022-09-01T10:59:56.046Z,97907.92
2022-09-01T11:01:15.487Z,97907.50
2022-09-01T11:02:28.879Z,97909.74
2022-09-01T11:03:57.046Z,97910.71
2022-09-01T11:05:05.329Z,97908.66
2022-09-01T11:06:13.628Z,97905.98
2022-09-01T11:07:44.562Z,97907.65
2022-09-01T11:09:02.664Z,97906.23
2022-09-01T11:10:35.953Z,97903.33
2022-09-01T11:12:14.902Z,97903.80
2022-09-01T11:13:34.911Z,97902.83
2022-09-01T11:14:58.442Z,97897.48
2022-09-01T11:16:49.257Z,97898.63
2022-09-01T11:17:58.171Z,97898.98
2022-09-01T11:19:23.111Z,97900.23
2022-09-01T11:20:43.894Z,97904.05
2022-09-01T11:22:09.709Z,97907.65
2022-09-01T11:23:25.270Z,97908.38
2022-09-01T11:24:54.438Z,97909.77
2022-09-01T11:26:27.213Z,97910.22
2022-09-01T11:27:53.031Z,97902.12
2022-09-01T11:29:00.306Z,97903.35
2022-09-01T11:30:10.390Z,97900.84
2022-09-01T11:31:26.172Z,97902.27
2022-09-01T11:32:36.722Z,97900.59
2022-09-01T11:33:43.853Z,97896.49
2022-09-01T11:34:51.483Z,97900.84
2022-09-01T11:36:36.764Z,97897.49
2022-09-01T11:37:43.841Z,97897.45
2022-09-01T11:38:58.267Z,97899.11
2022-09-01T11:40:07.799Z,97900.34
2022-09-01T11:41:24.721Z,97903.52
2022-09-01T11:42:41.830Z,97903.78
2022-09-01T11:43:55.602Z,97904.44
2022-09-01T11:45:28.967Z,97906.98
2022-09-01T11:46:37.034Z,97911.07
2022-09-01T11:47:51.904Z,97911.95
2022-09-01T11:49:09.282Z,97913.44
2022-09-01T11:50:24.661Z,97914.16
2022-09-01T11:51:49.521Z,97909.09
2022-09-01T11:53:16.868Z,97907.57
2022-09-01T11:54:25.024Z,97907.39
2022-09-01T11:55:37.833Z,97903.23
2022-09-01T11:56:45.343Z,97901.88
2022-09-01T11:57:54.351Z,97902.95
2022-09-01T11:59:00.701Z,97902.55
2022-09-01T12:00:14.901Z,97903.80
2022-09-01T12:01:46.481Z,97904.33
2022-09-01T12:02:53.134Z,97907.44
2022-09-01T12:04:26.303Z,97905.67
2022-09-01T12:05:34.621Z,97911.04
2022-09-01T12:06:41.791Z,97913.36
2022-09-01T12:07:48.966Z,97910.52
2022-09-01T12:09:02.672Z,97909.06
2022-09-01T12:10:35.126Z,97912.57
2022-09-01T12:11:43.314Z,97914.89
2022-09-01T12:12:50.143Z,97913.52
2022-09-01T12:14:11.588Z,97916.16
2022-09-01T12:15:22.722Z,97917.07
2022-09-01T12:16:30.003Z,97916.84
2022-09-01T12:17:37.471Z,97921.91
2022-09-01T12:18:52.711Z,97922.77
2022-09-01T12:20:30.089Z,97920.19
2022-09-01T12:21:44.412Z,97920.01
2022-09-01T12:22:50.782Z,97915.50
2022-09-01T12:24:18.771Z,97914.78
2022-09-01T12:25:30.200Z,97915.09
2022-09-01T12:26:37.672Z,97919.42
2022-09-01T12:27:44.782Z,97918.63
2022-09-01T12:28:51.902Z,97918.89
2022-09-01T12:30:02.381Z,97921.62
2022-09-01T12:31:14.791Z,97925.81
2022-09-01T12:32:21.376Z,97929.29
2022-09-01T12:33:29.631Z,97933.36
2022-09-01T12:34:42.493Z,97932.45
2022-09-01T12:35:56.096Z,97932.42
2022-09-01T12:37:17.671Z,97930.17
2022-09-01T12:38:27.764Z,97930.36
2022-09-01T12:39:45.761Z,97931.46
2022-09-01T12:40:54.863Z,97928.52
2022-09-01T12:42:13.613Z,97929.31
2022-09-01T12:43:35.861Z,97932.69
2022-09-01T12:44:42.502Z,97936.31
2022-09-01T12:45:52.274Z,97933.58
2022-09-01T12:46:59.974Z,97934.61
2022-09-01T12:48:06.193Z,97937.91
2022-09-01T12:49:28.567Z,97935.66
2022-09-01T12:50:37.416Z,97938.29
2022-09-01T12:51:48.415Z,97941.83
2022-09-01T12:53:03.817Z,97943.73
2022-09-01T12:54:13.076Z,97943.52
2022-09-01T12:56:50.476Z,97946.44
2022-09-01T12:57:58.926Z,97945.54
2022-09-01T12:59:17.888Z,97944.30
2022-09-01T13:00:34.536Z,97942.98
2022-09-01T13:01:44.505Z,97943.02
2022-09-01T13:02:51.539Z,97939.06
2022-09-01T13:04:14.666Z,97936.02
2022-09-01T13:05:27.128Z,97935.90
2022-09-01T13:06:37.336Z,97935.15
2022-09-01T13:07:44.125Z,97935.69
2022-09-01T13:08:50.700Z,97939.41
2022-09-01T13:09:57.926Z,97942.89
2022-09-01T13:11:11.657Z,97941.70
2022-09-01T13:12:20.922Z,97943.05
2022-09-01T13:13:27.188Z,97945.56
2022-09-01T13:14:34.056Z,97950.02
2022-09-01T13:15:48.855Z,97947.44
2022-09-01T13:16:55.964Z,97949.56
2022-09-01T13:18:03.484Z,97950.05
2022-09-01T13:19:11.243Z,97952.64
2022-09-01T13:20:21.643Z,97956.05
2022-09-01T13:21:28.437Z,97957.86
2022-09-01T13:22:36.375Z,97956.06
2022-09-01T13:23:44.040Z,97959.85
2022-09-01T13:24:51.036Z,97966.19
2022-09-01T13:25:59.855Z,97968.61
2022-09-01T13:27:22.292Z,97974.77
2022-09-01T13:28:30.369Z,97979.27
2022-09-01T13:29:37.455Z,97979.34
2022-09-01T13:30:44.565Z,97979.13
2022-09-01T13:33:23.161Z,97980.02
2022-09-01T13:34:30.069Z,97980.14
2022-09-01T13:35:37.272Z,97975.98
2022-09-01T13:36:49.341Z,97982.55
2022-09-01T13:37:59.658Z,97981.95
2022-09-01T13:39:06.127Z,97981.00
2022-09-01T13:40:16.405Z,97986.14
2022-09-01T13:41:23.587Z,97987.41
2022-09-01T13:42:33.300Z,97984.13
2022-09-01T13:43:41.291Z,97987.23
2022-09-01T13:44:49.713Z,97982.21
2022-09-01T13:45:59.279Z,97979.05
2022-09-01T13:50:10.773Z,97980.06
2022-09-01T13:51:28.534Z,97979.86
2022-09-01T13:52:35.484Z,97979.83
2022-09-01T13:53:43.646Z,97978.27
2022-09-01T13:54:50.201Z,97976.56
2022-09-01T13:57:08.745Z,97977.08
2022-09-01T13:58:15.968Z,97978.70
2022-09-01T13:59:24.355Z,97980.02
2022-09-01T14:00:37.007Z,97979.60
2022-09-01T14:01:45.266Z,97982.55
2022-09-01T14:02:54.038Z,97981.21
2022-09-01T14:04:06.650Z,97980.88
2022-09-01T14:05:12.615Z,97982.74
2022-09-01T14:06:22.188Z,97982.85
2022-09-01T14:07:28.345Z,97982.98
2022-09-01T14:08:40.535Z,97985.13
2022-09-01T14:09:47.648Z,97985.52
2022-09-01T14:10:57.247Z,97985.04
2022-09-01T14:12:03.705Z,97987.91
2022-09-01T14:13:10.916Z,97990.20
2022-09-01T14:14:18.201Z,97994.05
2022-09-01T14:15:27.357Z,97994.88
2022-09-01T14:16:35.177Z,97997.90
2022-09-01T14:17:41.194Z,97997.05
2022-09-01T14:18:50.807Z,98001.44
2022-09-01T14:20:00.640Z,98003.42
2022-09-01T14:21:07.318Z,98007.58
2022-09-01T14:22:14.166Z,98011.35
2022-09-01T14:23:20.944Z,98012.61
2022-09-01T14:24:28.796Z,98011.96
2022-09-01T14:25:39.186Z,98009.70
2022-09-01T14:26:52.191Z,98012.80
2022-09-01T14:27:59.191Z,98015.17
2022-09-01T14:29:05.577Z,98009.64
2022-09-01T14:30:33.715Z,98013.23
2022-09-01T14:31:40.226Z,98012.05
2022-09-01T14:32:50.145Z,98009.42
2022-09-01T14:33:58.018Z,98007.25
2022-09-01T14:35:04.858Z,98010.53
2022-09-01T14:36:18.014Z,98006.95
2022-09-01T14:37:25.747Z,98006.38
2022-09-01T14:38:32.536Z,98010.08
2022-09-01T14:39:40.366Z,98009.38
2022-09-01T14:40:51.114Z,98009.37
2022-09-01T14:42:02.536Z,98007.70
2022-09-01T14:43:11.187Z,98008.80
2022-09-01T14:44:19.996Z,98010.44
2022-09-01T14:45:28.858Z,98009.42
2022-09-01T14:46:35.266Z,98006.16